Frafjord — LIIP — position and weather

sailwx.info

Track history (hours):
 
Tides and Currents Weather Stations Pressure Air Temp Water Temp Dewpoint Dewpoint Depression Visibility Wind Speed Wind Dir Waves Ship Positions

Frafjord

Last reported at 2018-Feb-21 22:30 UTC. Time now 2018-Feb-21 22:47 UTC.
Position N 63°41' E 009°40'.

Length 57 m.

Type: Passenger vessel. MMSI: 257048700.

Date/timePositionNaut miles runAvg speedWind from/ knotsBaromVisibWave heightAir tempDewpointWater temp
2018-Feb-21 22:30N 63°41' E 009°40'0 0.0
2018-Feb-21 22:00N 63°41' E 009°40'0 0.0
2018-Feb-21 21:30N 63°41' E 009°40'0 0.0
2018-Feb-21 21:00N 63°41' E 009°40'0 0.0
2018-Feb-21 20:30N 63°41' E 009°40'0 0.0
2018-Feb-21 20:00N 63°41' E 009°40'0 0.0
2018-Feb-21 19:30N 63°41' E 009°40'0 0.0
2018-Feb-21 19:00N 63°41' E 009°40'0 0.0
2018-Feb-21 18:30N 63°41' E 009°40'0 0.0
2018-Feb-21 18:00N 63°41' E 009°40'0 0.0
2018-Feb-21 17:30N 63°41' E 009°40'0 0.0
2018-Feb-21 17:00N 63°41' E 009°40'3 5.7
2018-Feb-21 16:30N 63°38' E 009°41'3 5.9
2018-Feb-21 16:00N 63°41' E 009°40'3 5.7
2018-Feb-21 15:30N 63°38' E 009°41'3 5.8
2018-Feb-21 15:00N 63°41' E 009°40'3 5.6
2018-Feb-21 14:29N 63°38' E 009°41'3 5.8
2018-Feb-21 14:00N 63°41' E 009°40'3 5.5
2018-Feb-21 13:28N 63°38' E 009°41'3 6.2
2018-Feb-21 13:00N 63°41' E 009°40'3 5.7
2018-Feb-21 12:30N 63°38' E 009°41'3 5.7
2018-Feb-21 11:59N 63°41' E 009°40'3 5.8
2018-Feb-21 11:30N 63°38' E 009°41'3 5.9
2018-Feb-21 11:00N 63°41' E 009°40'3 5.6
2018-Feb-21 10:30N 63°38' E 009°41'3 5.8
2018-Feb-21 10:00N 63°41' E 009°40'3 5.8
2018-Feb-21 09:30N 63°38' E 009°41'3 5.6
2018-Feb-21 08:59N 63°41' E 009°40'3 6.1
2018-Feb-21 08:30N 63°38' E 009°41'3 5.7
2018-Feb-21 08:00N 63°41' E 009°40'3 5.8
2018-Feb-21 07:30N 63°38' E 009°41'3 5.7
2018-Feb-21 07:00N 63°41' E 009°40'3 5.8
2018-Feb-21 06:30N 63°38' E 009°41'2 4.4
2018-Feb-21 06:00N 63°41' E 009°41'1 1.4
2018-Feb-21 05:30N 63°41' E 009°40'0 0.0
2018-Feb-21 05:00N 63°41' E 009°40'0 0.0
2018-Feb-21 04:29N 63°41' E 009°40'0 0.0
2018-Feb-21 04:00N 63°41' E 009°40'0 0.0
2018-Feb-21 03:30N 63°41' E 009°40'0 0.0
2018-Feb-21 03:00N 63°41' E 009°40'0 0.0
2018-Feb-21 02:30N 63°41' E 009°40'0 0.0
2018-Feb-21 02:00N 63°41' E 009°40'0 0.0
2018-Feb-21 01:30N 63°41' E 009°40'0 0.0
2018-Feb-21 01:00N 63°41' E 009°40'0 0.0
2018-Feb-21 00:29N 63°41' E 009°40'0 0.0
2018-Feb-21 00:00N 63°41' E 009°40'0 0.0
2018-Feb-20 23:30N 63°41' E 009°40'0 0.0
2018-Feb-20 23:00N 63°41' E 009°40'0 0.0
2018-Feb-20 22:30N 63°41' E 009°40'0 0.0
2018-Feb-20 22:00N 63°41' E 009°40'0 0.0
2018-Feb-20 21:29N 63°41' E 009°40'0 0.0
2018-Feb-20 21:00N 63°41' E 009°40'0 0.0
2018-Feb-20 20:30N 63°41' E 009°40'0 0.0
2018-Feb-20 20:00N 63°41' E 009°40'0 0.0
2018-Feb-20 19:29N 63°41' E 009°40'0 0.0
2018-Feb-20 19:00N 63°41' E 009°40'0 0.0
2018-Feb-20 18:30N 63°41' E 009°40'0 0.0
2018-Feb-20 17:59N 63°41' E 009°40'0 0.0
2018-Feb-20 17:30N 63°41' E 009°40'0 0.0
2018-Feb-20 17:00N 63°41' E 009°40'3 5.7
2018-Feb-20 16:30N 63°38' E 009°41'3 5.8
2018-Feb-20 16:00N 63°41' E 009°40'3 5.7
2018-Feb-20 15:30N 63°38' E 009°41'3 5.8
2018-Feb-20 15:00N 63°41' E 009°40'3 5.8
2018-Feb-20 14:30N 63°38' E 009°41'3 5.7
2018-Feb-20 14:00N 63°41' E 009°40'3 5.8
2018-Feb-20 13:30N 63°38' E 009°41'3 5.7
2018-Feb-20 13:00N 63°41' E 009°40'3 5.8
2018-Feb-20 12:30N 63°38' E 009°41'3 5.7
2018-Feb-20 12:00N 63°41' E 009°40'3 5.9
2018-Feb-20 11:30N 63°38' E 009°41'3 5.8
2018-Feb-20 11:00N 63°41' E 009°40'3 5.7
2018-Feb-20 10:30N 63°38' E 009°41'0 0.0
2018-Feb-20 09:29N 63°38' E 009°41'1 0.5
2018-Feb-20 07:38N 63°39' E 009°41'1 6.8
2018-Feb-20 07:30N 63°38' E 009°41'3 5.8
2018-Feb-20 07:00N 63°41' E 009°40'3 5.7
2018-Feb-20 06:30N 63°38' E 009°41'2 4.5
2018-Feb-20 06:00N 63°41' E 009°41'1 1.4
2018-Feb-20 05:30N 63°41' E 009°40'0 0.0
2018-Feb-20 05:00N 63°41' E 009°40'0 0.0
2018-Feb-20 04:30N 63°41' E 009°40'0 0.0
2018-Feb-20 03:59N 63°41' E 009°40'0 0.0
2018-Feb-20 03:30N 63°41' E 009°40'0 0.0
2018-Feb-20 03:00N 63°41' E 009°40'0 0.0
2018-Feb-20 02:30N 63°41' E 009°40'0 0.0
2018-Feb-20 02:00N 63°41' E 009°40'0 0.0
2018-Feb-20 01:30N 63°41' E 009°40'0 0.0
2018-Feb-20 01:00N 63°41' E 009°40'0 0.0
2018-Feb-20 00:30N 63°41' E 009°40'0 0.0
2018-Feb-20 00:00N 63°41' E 009°40'0 0.0
2018-Feb-19 23:28N 63°41' E 009°40'0 0.0
2018-Feb-19 23:00N 63°41' E 009°40'0 0.0
2018-Feb-19 22:30N 63°41' E 009°40'0 0.0
2018-Feb-19 22:00N 63°41' E 009°40'0 0.0
2018-Feb-19 21:30N 63°41' E 009°40'0 0.0
2018-Feb-19 21:00N 63°41' E 009°40'0 0.0
2018-Feb-19 20:29N 63°41' E 009°40'0 0.0
2018-Feb-19 19:59N 63°41' E 009°40'0 0.0
2018-Feb-19 19:30N 63°41' E 009°40'0 0.0
2018-Feb-19 17:21N 63°41' E 009°40'0 0.0
2018-Feb-19 17:00N 63°41' E 009°40'3 5.8
2018-Feb-19 16:30N 63°38' E 009°41'1 0.3
2018-Feb-19 11:42N 63°40' E 009°42'1 7.2
2018-Feb-19 11:30N 63°38' E 009°41'3 5.8
2018-Feb-19 11:01N 63°41' E 009°40'3 5.7
2018-Feb-19 10:30N 63°38' E 009°41'3 5.8
2018-Feb-19 10:00N 63°41' E 009°40'3 5.8
2018-Feb-19 09:30N 63°38' E 009°41'3 5.6
2018-Feb-19 09:00N 63°41' E 009°40'3 5.8
2018-Feb-19 08:30N 63°38' E 009°41'3 5.8
2018-Feb-19 08:00N 63°41' E 009°40'3 5.8
2018-Feb-19 07:30N 63°38' E 009°41'3 5.8
2018-Feb-19 07:00N 63°41' E 009°40'3 5.6
2018-Feb-19 06:29N 63°38' E 009°41'2 3.7
2018-Feb-19 05:59N 63°40' E 009°41'1 1.4
2018-Feb-19 05:29N 63°40' E 009°41'0 0.8
2018-Feb-19 05:00N 63°40' E 009°41'1 2.6
2018-Feb-19 04:30N 63°41' E 009°40'0 0.0
2018-Feb-19 04:00N 63°41' E 009°40'0 0.0
2018-Feb-19 03:30N 63°41' E 009°40'0 0.0
2018-Feb-19 03:00N 63°41' E 009°40'0 0.0
2018-Feb-19 02:30N 63°41' E 009°40'0 0.0
2018-Feb-19 02:00N 63°41' E 009°40'0 0.0
2018-Feb-19 01:30N 63°41' E 009°40'0 0.0
2018-Feb-19 01:00N 63°41' E 009°40'0 0.0
2018-Feb-19 00:30N 63°41' E 009°40'0 0.0
2018-Feb-19 00:00N 63°41' E 009°40'0 0.0
2018-Feb-18 23:29N 63°41' E 009°40'0 0.0
2018-Feb-18 22:59N 63°41' E 009°40'0 0.0
2018-Feb-18 22:30N 63°41' E 009°40'0 0.0
2018-Feb-18 22:00N 63°41' E 009°40'0 0.0
2018-Feb-18 21:30N 63°41' E 009°40'0 0.0
2018-Feb-18 20:59N 63°41' E 009°40'0 0.0
2018-Feb-18 20:30N 63°41' E 009°40'0 0.0
2018-Feb-18 19:58N 63°41' E 009°40'0 0.0
2018-Feb-18 19:30N 63°41' E 009°40'0 0.0
2018-Feb-18 19:00N 63°41' E 009°40'3 5.9
2018-Feb-18 18:30N 63°38' E 009°41'3 5.6
2018-Feb-18 18:00N 63°41' E 009°40'3 5.8
2018-Feb-18 17:30N 63°38' E 009°41'3 5.6
2018-Feb-18 17:00N 63°41' E 009°40'3 5.8
2018-Feb-18 16:30N 63°38' E 009°41'3 5.6
2018-Feb-18 15:59N 63°41' E 009°40'3 5.9
2018-Feb-18 15:30N 63°38' E 009°41'3 5.7
2018-Feb-18 15:00N 63°41' E 009°40'3 5.9
2018-Feb-18 14:30N 63°38' E 009°41'3 5.4
2018-Feb-18 13:59N 63°41' E 009°40'3 5.8
2018-Feb-18 13:28N 63°38' E 009°41'3 6.1
2018-Feb-18 13:00N 63°41' E 009°40'0 0.1
2018-Feb-18 12:29N 63°41' E 009°40'0 0.0
2018-Feb-18 12:00N 63°41' E 009°40'0 0.0
2018-Feb-18 11:29N 63°41' E 009°40'0 0.0
2018-Feb-18 10:59N 63°41' E 009°40'0 0.0
2018-Feb-18 10:28N 63°41' E 009°40'0 0.0
2018-Feb-18 10:00N 63°41' E 009°40'0 0.0
2018-Feb-18 09:30N 63°41' E 009°40'0 0.0
2018-Feb-18 09:00N 63°41' E 009°40'0 0.0
2018-Feb-18 08:29N 63°41' E 009°40'0 0.0
2018-Feb-18 07:58N 63°41' E 009°40'0 0.0
2018-Feb-18 07:30N 63°41' E 009°40'0 0.0
2018-Feb-18 07:00N 63°41' E 009°40'0 0.0
2018-Feb-18 06:30N 63°41' E 009°40'0 0.0
2018-Feb-18 05:59N 63°41' E 009°40'0 0.0
2018-Feb-18 05:30N 63°41' E 009°40'0 0.0
2018-Feb-18 05:00N 63°41' E 009°40'0 0.0
2018-Feb-18 04:30N 63°41' E 009°40'0 0.0
2018-Feb-18 03:58N 63°41' E 009°40'0 0.0
2018-Feb-18 03:30N 63°41' E 009°40'0 0.0
2018-Feb-18 03:00N 63°41' E 009°40'0 0.0
2018-Feb-18 02:30N 63°41' E 009°40'0 0.0
2018-Feb-18 02:00N 63°41' E 009°40'0 0.0
2018-Feb-18 01:30N 63°41' E 009°40'0 0.0
2018-Feb-18 01:00N 63°41' E 009°40'0 0.0
2018-Feb-18 00:30N 63°41' E 009°40'0 0.0
2018-Feb-18 00:00N 63°41' E 009°40'0 0.0
2018-Feb-17 23:30N 63°41' E 009°40'0 0.0
2018-Feb-17 23:00N 63°41' E 009°40'0 0.0
2018-Feb-17 22:30N 63°41' E 009°40'0 0.0
2018-Feb-17 22:00N 63°41' E 009°40'0 0.0
2018-Feb-17 21:30N 63°41' E 009°40'0 0.0
2018-Feb-17 21:00N 63°41' E 009°40'0 0.0
2018-Feb-17 20:30N 63°41' E 009°40'0 0.0
2018-Feb-17 20:00N 63°41' E 009°40'0 0.0
2018-Feb-17 19:30N 63°41' E 009°40'0 0.0
2018-Feb-17 19:00N 63°41' E 009°40'0 0.0
2018-Feb-17 18:30N 63°41' E 009°40'0 0.0
2018-Feb-17 18:00N 63°41' E 009°40'0 0.0
2018-Feb-17 17:30N 63°41' E 009°40'0 0.0
2018-Feb-17 17:00N 63°41' E 009°40'0 0.0
2018-Feb-17 16:30N 63°41' E 009°40'0 0.0
2018-Feb-17 16:00N 63°41' E 009°40'0 0.0
2018-Feb-17 15:30N 63°41' E 009°40'0 0.0
2018-Feb-17 15:00N 63°41' E 009°40'0 0.0
2018-Feb-17 14:30N 63°41' E 009°40'0 0.0
2018-Feb-17 14:00N 63°41' E 009°40'0 0.0
2018-Feb-17 13:30N 63°41' E 009°40'0 0.0
2018-Feb-17 13:00N 63°41' E 009°40'0 0.0
2018-Feb-17 12:30N 63°41' E 009°40'0 0.0
2018-Feb-17 12:00N 63°41' E 009°40'0 0.0
2018-Feb-17 11:30N 63°41' E 009°40'0 0.0
2018-Feb-17 11:00N 63°41' E 009°40'0 0.0
2018-Feb-17 10:30N 63°41' E 009°40'0 0.0
2018-Feb-17 10:00N 63°41' E 009°40'0 0.0
2018-Feb-17 09:30N 63°41' E 009°40'0 0.0
2018-Feb-17 09:00N 63°41' E 009°40'0 0.0
2018-Feb-17 08:30N 63°41' E 009°40'0 0.0
2018-Feb-17 08:00N 63°41' E 009°40'0 0.0
2018-Feb-17 07:30N 63°41' E 009°40'0 0.0
2018-Feb-17 07:00N 63°41' E 009°40'0 0.0
2018-Feb-17 06:29N 63°41' E 009°40'0 0.0
2018-Feb-17 06:00N 63°41' E 009°40'0 0.0
2018-Feb-17 05:30N 63°41' E 009°40'0 0.0
2018-Feb-17 05:00N 63°41' E 009°40'0 0.0
2018-Feb-17 04:30N 63°41' E 009°40'0 0.0
2018-Feb-17 04:00N 63°41' E 009°40'0 0.0
2018-Feb-17 03:30N 63°41' E 009°40'0 0.0
2018-Feb-17 03:00N 63°41' E 009°40'0 0.0
2018-Feb-17 02:30N 63°41' E 009°40'0 0.0
2018-Feb-17 02:00N 63°41' E 009°40'0 0.0
2018-Feb-17 01:30N 63°41' E 009°40'0 0.0
2018-Feb-17 01:00N 63°41' E 009°40'0 0.0
2018-Feb-17 00:30N 63°41' E 009°40'0 0.0
2018-Feb-17 00:00N 63°41' E 009°40'0 0.0
2018-Feb-16 23:30N 63°41' E 009°40'0 0.0
2018-Feb-16 22:59N 63°41' E 009°40'0 0.0
2018-Feb-16 22:30N 63°41' E 009°40'0 0.0
2018-Feb-16 22:01N 63°41' E 009°40'0 0.0
2018-Feb-16 21:29N 63°41' E 009°40'0 0.0
2018-Feb-16 20:59N 63°41' E 009°40'0 0.0
2018-Feb-16 20:30N 63°41' E 009°40'0 0.0
2018-Feb-16 20:00N 63°41' E 009°40'0 0.0
2018-Feb-16 19:30N 63°41' E 009°40'0 0.0
2018-Feb-16 19:00N 63°41' E 009°40'0 0.0
2018-Feb-16 18:30N 63°41' E 009°40'0 0.0
2018-Feb-16 18:00N 63°41' E 009°40'3 5.6
2018-Feb-16 17:30N 63°38' E 009°41'3 5.9
2018-Feb-16 17:00N 63°41' E 009°40'3 5.7
2018-Feb-16 16:30N 63°38' E 009°41'3 5.6
2018-Feb-16 15:59N 63°41' E 009°40'3 5.8
2018-Feb-16 15:30N 63°38' E 009°41'3 5.8
2018-Feb-16 15:00N 63°41' E 009°40'3 5.7
2018-Feb-16 14:30N 63°38' E 009°41'3 5.7
2018-Feb-16 14:00N 63°41' E 009°40'3 5.8
2018-Feb-16 13:30N 63°38' E 009°41'3 5.7
2018-Feb-16 13:00N 63°41' E 009°40'3 5.7
2018-Feb-16 12:30N 63°38' E 009°41'3 5.7
2018-Feb-16 12:00N 63°41' E 009°40'3 5.8
2018-Feb-16 11:30N 63°38' E 009°41'3 5.7
2018-Feb-16 11:00N 63°41' E 009°40'3 5.8
2018-Feb-16 10:30N 63°38' E 009°41'3 5.8
2018-Feb-16 10:00N 63°41' E 009°40'3 5.7
2018-Feb-16 09:30N 63°38' E 009°41'3 5.7
2018-Feb-16 09:00N 63°41' E 009°40'3 5.9
2018-Feb-16 08:30N 63°38' E 009°41'3 5.5
2018-Feb-16 07:59N 63°41' E 009°40'3 6.1
2018-Feb-16 07:30N 63°38' E 009°41'3 5.6
2018-Feb-16 06:59N 63°41' E 009°40'0 0.1
2018-Feb-16 06:29N 63°41' E 009°40'0 0.0
2018-Feb-16 06:00N 63°41' E 009°40'0 0.0
2018-Feb-16 05:30N 63°41' E 009°40'0 0.0
2018-Feb-16 04:59N 63°41' E 009°40'0 0.0
2018-Feb-16 04:30N 63°41' E 009°40'0 0.0
2018-Feb-16 04:00N 63°41' E 009°40'0 0.0
2018-Feb-16 03:30N 63°41' E 009°40'0 0.0
2018-Feb-16 03:00N 63°41' E 009°40'0 0.0
2018-Feb-16 02:30N 63°41' E 009°40'0 0.0
2018-Feb-16 02:00N 63°41' E 009°40'0 0.0
2018-Feb-16 01:30N 63°41' E 009°40'0 0.0
2018-Feb-16 01:00N 63°41' E 009°40'0 0.0
2018-Feb-16 00:30N 63°41' E 009°40'0 0.0
2018-Feb-16 00:00N 63°41' E 009°40'0 0.0
2018-Feb-15 23:31N 63°41' E 009°40'0 0.0
2018-Feb-15 23:01N 63°41' E 009°40'0 0.0
2018-Feb-15 22:30N 63°41' E 009°40'0 0.0
2018-Feb-15 22:00N 63°41' E 009°40'0 0.0
2018-Feb-15 21:30N 63°41' E 009°40'0 0.0
2018-Feb-15 21:00N 63°41' E 009°40'0 0.0
2018-Feb-15 20:30N 63°41' E 009°40'0 0.0
2018-Feb-15 20:00N 63°41' E 009°40'0 0.0
2018-Feb-15 19:30N 63°41' E 009°40'0 0.0
2018-Feb-15 19:00N 63°41' E 009°40'0 0.0
2018-Feb-15 18:30N 63°41' E 009°40'0 0.0
2018-Feb-15 18:00N 63°41' E 009°40'0 0.0
2018-Feb-15 17:30N 63°41' E 009°40'0 0.0
2018-Feb-15 17:00N 63°41' E 009°40'3 5.9
2018-Feb-15 16:30N 63°38' E 009°41'3 5.6
2018-Feb-15 16:00N 63°41' E 009°40'3 5.8
2018-Feb-15 15:30N 63°38' E 009°41'3 5.8
2018-Feb-15 15:00N 63°41' E 009°40'3 5.8
2018-Feb-15 14:30N 63°38' E 009°41'3 5.7
2018-Feb-15 14:00N 63°41' E 009°40'3 5.8
2018-Feb-15 13:30N 63°38' E 009°41'3 5.7
2018-Feb-15 13:01N 63°41' E 009°40'3 5.7
2018-Feb-15 12:31N 63°38' E 009°41'3 5.6
2018-Feb-15 12:00N 63°41' E 009°40'3 5.7
2018-Feb-15 11:30N 63°38' E 009°41'3 5.7
2018-Feb-15 10:59N 63°41' E 009°40'3 5.9
2018-Feb-15 10:30N 63°38' E 009°41'3 5.8
2018-Feb-15 10:00N 63°41' E 009°40'3 5.9
2018-Feb-15 09:31N 63°38' E 009°41'3 5.6
2018-Feb-15 09:00N 63°41' E 009°40'3 5.8
2018-Feb-15 08:30N 63°38' E 009°41'3 5.7
2018-Feb-15 08:00N 63°41' E 009°40'3 5.9
2018-Feb-15 07:30N 63°38' E 009°41'3 5.6
2018-Feb-15 07:00N 63°41' E 009°40'3 5.8
2018-Feb-15 06:30N 63°38' E 009°41'2 4.4
2018-Feb-15 06:00N 63°41' E 009°41'1 1.5
2018-Feb-15 05:30N 63°41' E 009°40'0 0.0
2018-Feb-15 05:00N 63°41' E 009°40'0 0.0
2018-Feb-15 04:30N 63°41' E 009°40'0 0.0
2018-Feb-15 04:00N 63°41' E 009°40'0 0.0
2018-Feb-15 03:30N 63°41' E 009°40'0 0.0
2018-Feb-15 03:01N 63°41' E 009°40'0 0.0
2018-Feb-15 02:31N 63°41' E 009°40'0 0.0
2018-Feb-15 02:00N 63°41' E 009°40'0 0.0
2018-Feb-15 01:30N 63°41' E 009°40'0 0.0
2018-Feb-15 01:00N 63°41' E 009°40'0 0.0
2018-Feb-15 00:30N 63°41' E 009°40'0 0.0
2018-Feb-15 00:00N 63°41' E 009°40'0 0.0
2018-Feb-14 23:30N 63°41' E 009°40'0 0.0
2018-Feb-14 23:00N 63°41' E 009°40'0 0.0
2018-Feb-14 22:30N 63°41' E 009°40'0 0.0
2018-Feb-14 22:00N 63°41' E 009°40'0 0.0
2018-Feb-14 21:31N 63°41' E 009°40'0 0.0
2018-Feb-14 21:01N 63°41' E 009°40'0 0.0
2018-Feb-14 20:29N 63°41' E 009°40'0 0.0
2018-Feb-14 20:00N 63°41' E 009°40'0 0.0
2018-Feb-14 19:29N 63°41' E 009°40'0 0.0
2018-Feb-14 19:00N 63°41' E 009°40'0 0.2
2018-Feb-14 18:30N 63°41' E 009°40'3 5.8
2018-Feb-14 18:00N 63°38' E 009°41'3 5.7
2018-Feb-14 17:30N 63°41' E 009°40'0 0.0
2018-Feb-14 17:00N 63°41' E 009°40'3 5.9
2018-Feb-14 16:30N 63°38' E 009°41'3 5.7
2018-Feb-14 16:00N 63°41' E 009°40'3 5.6
2018-Feb-14 15:29N 63°38' E 009°41'3 6.0
2018-Feb-14 15:01N 63°41' E 009°40'3 5.6
2018-Feb-14 14:30N 63°38' E 009°41'3 5.9
2018-Feb-14 14:00N 63°41' E 009°40'3 5.8
2018-Feb-14 13:30N 63°38' E 009°41'3 5.7
2018-Feb-14 13:00N 63°41' E 009°40'3 5.8
2018-Feb-14 12:31N 63°38' E 009°41'3 5.6
2018-Feb-14 12:00N 63°41' E 009°40'3 5.7
2018-Feb-14 11:30N 63°38' E 009°41'3 5.9
2018-Feb-14 11:01N 63°41' E 009°40'3 5.7
2018-Feb-14 10:30N 63°38' E 009°41'3 5.8
2018-Feb-14 10:00N 63°41' E 009°40'3 5.7
2018-Feb-14 09:30N 63°38' E 009°41'3 5.8
2018-Feb-14 09:00N 63°41' E 009°40'3 5.7
2018-Feb-14 08:30N 63°38' E 009°41'3 6.0
2018-Feb-14 08:00N 63°41' E 009°40'3 5.7
2018-Feb-14 07:30N 63°38' E 009°41'3 5.7
2018-Feb-14 07:00N 63°41' E 009°40'3 6.0
2018-Feb-14 06:31N 63°38' E 009°41'2 3.7
2018-Feb-14 06:00N 63°40' E 009°41'1 2.1
2018-Feb-14 05:30N 63°41' E 009°40'0 0.0
2018-Feb-14 05:00N 63°41' E 009°40'0 0.0
2018-Feb-14 04:30N 63°41' E 009°40'0 0.0
2018-Feb-14 04:00N 63°41' E 009°40'0 0.0
2018-Feb-14 03:30N 63°41' E 009°40'0 0.0
2018-Feb-14 03:00N 63°41' E 009°40'0 0.0
2018-Feb-14 02:31N 63°41' E 009°40'0 0.0
2018-Feb-14 02:01N 63°41' E 009°40'0 0.0
2018-Feb-14 01:30N 63°41' E 009°40'0 0.0
2018-Feb-14 01:00N 63°41' E 009°40'0 0.0
2018-Feb-14 00:30N 63°41' E 009°40'0 0.0
2018-Feb-14 00:00N 63°41' E 009°40'0 0.0
2018-Feb-13 23:30N 63°41' E 009°40'0 0.0
2018-Feb-13 22:59N 63°41' E 009°40'0 0.0
2018-Feb-13 22:30N 63°41' E 009°40'0 0.0
2018-Feb-13 22:00N 63°41' E 009°40'0 0.0
2018-Feb-13 21:30N 63°41' E 009°40'0 0.0
2018-Feb-13 21:00N 63°41' E 009°40'0 0.0
2018-Feb-13 20:30N 63°41' E 009°40'0 0.0
2018-Feb-13 20:01N 63°41' E 009°40'0 0.0
2018-Feb-13 19:30N 63°41' E 009°40'0 0.0
2018-Feb-13 19:00N 63°41' E 009°40'0 0.0
2018-Feb-13 18:30N 63°41' E 009°40'0 0.0
2018-Feb-13 18:00N 63°41' E 009°40'0 0.0
2018-Feb-13 17:29N 63°41' E 009°40'0 0.0
2018-Feb-13 17:00N 63°41' E 009°40'3 5.7
2018-Feb-13 16:30N 63°38' E 009°41'3 5.9
2018-Feb-13 16:00N 63°41' E 009°40'3 5.7
2018-Feb-13 15:30N 63°38' E 009°41'3 5.9
2018-Feb-13 15:01N 63°41' E 009°40'3 5.7
2018-Feb-13 14:30N 63°38' E 009°41'3 5.8
2018-Feb-13 14:00N 63°41' E 009°40'3 5.7
2018-Feb-13 13:30N 63°38' E 009°41'3 5.7
2018-Feb-13 13:00N 63°41' E 009°40'3 5.8
2018-Feb-13 12:30N 63°38' E 009°41'3 5.9
2018-Feb-13 12:00N 63°41' E 009°40'3 5.7
2018-Feb-13 11:30N 63°38' E 009°41'3 5.6
2018-Feb-13 11:00N 63°41' E 009°40'3 5.8
2018-Feb-13 10:30N 63°38' E 009°41'3 5.8
2018-Feb-13 10:00N 63°41' E 009°40'3 5.6
2018-Feb-13 09:29N 63°38' E 009°41'3 4.2
2018-Feb-13 08:50N 63°41' E 009°41'3 7.7
2018-Feb-13 08:29N 63°38' E 009°41'3 5.9
2018-Feb-13 08:00N 63°41' E 009°40'3 5.8
2018-Feb-13 07:30N 63°38' E 009°41'3 5.8
2018-Feb-13 07:00N 63°41' E 009°40'3 5.7
2018-Feb-13 06:30N 63°38' E 009°41'2 4.0
2018-Feb-13 06:00N 63°40' E 009°41'1 1.9
2018-Feb-13 05:30N 63°41' E 009°40'0 0.0
2018-Feb-13 05:01N 63°41' E 009°40'0 0.0
2018-Feb-13 04:30N 63°41' E 009°40'0 0.0
2018-Feb-13 04:00N 63°41' E 009°40'0 0.0
2018-Feb-13 03:28N 63°41' E 009°40'0 0.0
2018-Feb-13 03:00N 63°41' E 009°40'0 0.0
2018-Feb-13 02:31N 63°41' E 009°40'0 0.0
2018-Feb-13 02:00N 63°41' E 009°40'0 0.0
2018-Feb-13 01:30N 63°41' E 009°40'0 0.0
2018-Feb-13 01:00N 63°41' E 009°40'0 0.0
2018-Feb-13 00:30N 63°41' E 009°40'0 0.0
2018-Feb-13 00:00N 63°41' E 009°40'0 0.0
2018-Feb-12 23:30N 63°41' E 009°40'0 0.0
2018-Feb-12 23:00N 63°41' E 009°40'0 0.0
2018-Feb-12 22:30N 63°41' E 009°40'0 0.0
2018-Feb-12 22:00N 63°41' E 009°40'0 0.0
2018-Feb-12 21:30N 63°41' E 009°40'0 0.0
2018-Feb-12 21:00N 63°41' E 009°40'0 0.0
2018-Feb-12 20:31N 63°41' E 009°40'0 0.0
2018-Feb-12 20:00N 63°41' E 009°40'0 0.0
2018-Feb-12 19:30N 63°41' E 009°40'0 0.0
2018-Feb-12 18:59N 63°41' E 009°40'0 0.0
2018-Feb-12 18:30N 63°41' E 009°40'0 0.0
2018-Feb-12 18:00N 63°41' E 009°40'0 0.0
2018-Feb-12 17:30N 63°41' E 009°40'0 0.0
2018-Feb-12 16:59N 63°41' E 009°40'3 6.0
2018-Feb-12 16:30N 63°38' E 009°41'3 5.6
2018-Feb-12 16:00N 63°41' E 009°40'3 5.9
2018-Feb-12 15:31N 63°38' E 009°41'3 5.6
2018-Feb-12 15:00N 63°41' E 009°40'3 5.8
2018-Feb-12 14:30N 63°38' E 009°41'3 5.7
2018-Feb-12 14:00N 63°41' E 009°40'3 5.9
2018-Feb-12 13:30N 63°38' E 009°41'3 5.7
2018-Feb-12 13:00N 63°41' E 009°40'3 5.8
2018-Feb-12 12:30N 63°38' E 009°41'3 5.6
2018-Feb-12 12:00N 63°41' E 009°40'3 5.9
2018-Feb-12 11:30N 63°38' E 009°41'3 5.9
2018-Feb-12 11:01N 63°41' E 009°40'3 5.7
2018-Feb-12 10:30N 63°38' E 009°41'3 5.7
2018-Feb-12 10:00N 63°41' E 009°40'3 5.9
2018-Feb-12 09:31N 63°38' E 009°41'3 5.7
2018-Feb-12 09:00N 63°41' E 009°40'3 5.8
2018-Feb-12 08:30N 63°38' E 009°41'3 5.6
2018-Feb-12 08:00N 63°41' E 009°40'3 5.7
2018-Feb-12 07:29N 63°38' E 009°41'3 5.6
2018-Feb-12 06:59N 63°41' E 009°40'3 5.9
2018-Feb-12 06:29N 63°38' E 009°41'2 3.8
2018-Feb-12 06:01N 63°40' E 009°41'1 1.1
2018-Feb-12 05:30N 63°40' E 009°41'1 1.5
2018-Feb-12 05:01N 63°39' E 009°41'2 4.5
2018-Feb-12 04:30N 63°41' E 009°40'0 0.0
2018-Feb-12 04:00N 63°41' E 009°40'0 0.0
2018-Feb-12 03:29N 63°41' E 009°40'0 0.0
2018-Feb-12 03:00N 63°41' E 009°40'0 0.0
2018-Feb-12 02:30N 63°41' E 009°40'0 0.0
2018-Feb-12 02:01N 63°41' E 009°40'0 0.0
2018-Feb-12 01:29N 63°41' E 009°40'0 0.0
2018-Feb-12 01:00N 63°41' E 009°40'0 0.0
2018-Feb-12 00:30N 63°41' E 009°40'0 0.0
2018-Feb-11 23:59N 63°41' E 009°40'0 0.0
2018-Feb-11 23:30N 63°41' E 009°40'0 0.0
2018-Feb-11 23:00N 63°41' E 009°40'0 0.0
2018-Feb-11 22:30N 63°41' E 009°40'  
Track history (hours):
 
Tides and Currents Weather Stations Pressure Air Temp Water Temp Dewpoint Dewpoint Depression Visibility Wind Speed Wind Dir Waves Ship Positions

Frafjord

Last reported at 2018-Feb-21 22:30 UTC. Time now 2018-Feb-21 22:47 UTC.
Position N 63°41' E 009°40'.

Length 57 m.

Type: Passenger vessel. MMSI: 257048700.

Date/timePositionNaut miles runAvg speedWind from/ knotsBaromVisibWave heightAir tempDewpointWater temp
2018-Feb-21 22:30N 63°41' E 009°40'0 0.0
2018-Feb-21 22:00N 63°41' E 009°40'0 0.0
2018-Feb-21 21:30N 63°41' E 009°40'0 0.0
2018-Feb-21 21:00N 63°41' E 009°40'0 0.0
2018-Feb-21 20:30N 63°41' E 009°40'0 0.0
2018-Feb-21 20:00N 63°41' E 009°40'0 0.0
2018-Feb-21 19:30N 63°41' E 009°40'0 0.0
2018-Feb-21 19:00N 63°41' E 009°40'0 0.0
2018-Feb-21 18:30N 63°41' E 009°40'0 0.0
2018-Feb-21 18:00N 63°41' E 009°40'0 0.0
2018-Feb-21 17:30N 63°41' E 009°40'0 0.0
2018-Feb-21 17:00N 63°41' E 009°40'3 5.7
2018-Feb-21 16:30N 63°38' E 009°41'3 5.9
2018-Feb-21 16:00N 63°41' E 009°40'3 5.7
2018-Feb-21 15:30N 63°38' E 009°41'3 5.8
2018-Feb-21 15:00N 63°41' E 009°40'3 5.6
2018-Feb-21 14:29N 63°38' E 009°41'3 5.8
2018-Feb-21 14:00N 63°41' E 009°40'3 5.5
2018-Feb-21 13:28N 63°38' E 009°41'3 6.2
2018-Feb-21 13:00N 63°41' E 009°40'3 5.7
2018-Feb-21 12:30N 63°38' E 009°41'3 5.7
2018-Feb-21 11:59N 63°41' E 009°40'3 5.8
2018-Feb-21 11:30N 63°38' E 009°41'3 5.9
2018-Feb-21 11:00N 63°41' E 009°40'3 5.6
2018-Feb-21 10:30N 63°38' E 009°41'3 5.8
2018-Feb-21 10:00N 63°41' E 009°40'3 5.8
2018-Feb-21 09:30N 63°38' E 009°41'3 5.6
2018-Feb-21 08:59N 63°41' E 009°40'3 6.1
2018-Feb-21 08:30N 63°38' E 009°41'3 5.7
2018-Feb-21 08:00N 63°41' E 009°40'3 5.8
2018-Feb-21 07:30N 63°38' E 009°41'3 5.7
2018-Feb-21 07:00N 63°41' E 009°40'3 5.8
2018-Feb-21 06:30N 63°38' E 009°41'2 4.4
2018-Feb-21 06:00N 63°41' E 009°41'1 1.4
2018-Feb-21 05:30N 63°41' E 009°40'0 0.0
2018-Feb-21 05:00N 63°41' E 009°40'0 0.0
2018-Feb-21 04:29N 63°41' E 009°40'0 0.0
2018-Feb-21 04:00N 63°41' E 009°40'0 0.0
2018-Feb-21 03:30N 63°41' E 009°40'0 0.0
2018-Feb-21 03:00N 63°41' E 009°40'0 0.0
2018-Feb-21 02:30N 63°41' E 009°40'0 0.0
2018-Feb-21 02:00N 63°41' E 009°40'0 0.0
2018-Feb-21 01:30N 63°41' E 009°40'0 0.0
2018-Feb-21 01:00N 63°41' E 009°40'0 0.0
2018-Feb-21 00:29N 63°41' E 009°40'0 0.0
2018-Feb-21 00:00N 63°41' E 009°40'0 0.0
2018-Feb-20 23:30N 63°41' E 009°40'0 0.0
2018-Feb-20 23:00N 63°41' E 009°40'0 0.0
2018-Feb-20 22:30N 63°41' E 009°40'0 0.0
2018-Feb-20 22:00N 63°41' E 009°40'0 0.0
2018-Feb-20 21:29N 63°41' E 009°40'0 0.0
2018-Feb-20 21:00N 63°41' E 009°40'0 0.0
2018-Feb-20 20:30N 63°41' E 009°40'0 0.0
2018-Feb-20 20:00N 63°41' E 009°40'0 0.0
2018-Feb-20 19:29N 63°41' E 009°40'0 0.0
2018-Feb-20 19:00N 63°41' E 009°40'0 0.0
2018-Feb-20 18:30N 63°41' E 009°40'0 0.0
2018-Feb-20 17:59N 63°41' E 009°40'0 0.0
2018-Feb-20 17:30N 63°41' E 009°40'0 0.0
2018-Feb-20 17:00N 63°41' E 009°40'3 5.7
2018-Feb-20 16:30N 63°38' E 009°41'3 5.8
2018-Feb-20 16:00N 63°41' E 009°40'3 5.7
2018-Feb-20 15:30N 63°38' E 009°41'3 5.8
2018-Feb-20 15:00N 63°41' E 009°40'3 5.8
2018-Feb-20 14:30N 63°38' E 009°41'3 5.7
2018-Feb-20 14:00N 63°41' E 009°40'3 5.8
2018-Feb-20 13:30N 63°38' E 009°41'3 5.7
2018-Feb-20 13:00N 63°41' E 009°40'3 5.8
2018-Feb-20 12:30N 63°38' E 009°41'3 5.7
2018-Feb-20 12:00N 63°41' E 009°40'3 5.9
2018-Feb-20 11:30N 63°38' E 009°41'3 5.8
2018-Feb-20 11:00N 63°41' E 009°40'3 5.7
2018-Feb-20 10:30N 63°38' E 009°41'0 0.0
2018-Feb-20 09:29N 63°38' E 009°41'1 0.5
2018-Feb-20 07:38N 63°39' E 009°41'1 6.8
2018-Feb-20 07:30N 63°38' E 009°41'3 5.8
2018-Feb-20 07:00N 63°41' E 009°40'3 5.7
2018-Feb-20 06:30N 63°38' E 009°41'2 4.5
2018-Feb-20 06:00N 63°41' E 009°41'1 1.4
2018-Feb-20 05:30N 63°41' E 009°40'0 0.0
2018-Feb-20 05:00N 63°41' E 009°40'0 0.0
2018-Feb-20 04:30N 63°41' E 009°40'0 0.0
2018-Feb-20 03:59N 63°41' E 009°40'0 0.0
2018-Feb-20 03:30N 63°41' E 009°40'0 0.0
2018-Feb-20 03:00N 63°41' E 009°40'0 0.0
2018-Feb-20 02:30N 63°41' E 009°40'0 0.0
2018-Feb-20 02:00N 63°41' E 009°40'0 0.0
2018-Feb-20 01:30N 63°41' E 009°40'0 0.0
2018-Feb-20 01:00N 63°41' E 009°40'0 0.0
2018-Feb-20 00:30N 63°41' E 009°40'0 0.0
2018-Feb-20 00:00N 63°41' E 009°40'0 0.0
2018-Feb-19 23:28N 63°41' E 009°40'0 0.0
2018-Feb-19 23:00N 63°41' E 009°40'0 0.0
2018-Feb-19 22:30N 63°41' E 009°40'0 0.0
2018-Feb-19 22:00N 63°41' E 009°40'0 0.0
2018-Feb-19 21:30N 63°41' E 009°40'0 0.0
2018-Feb-19 21:00N 63°41' E 009°40'0 0.0
2018-Feb-19 20:29N 63°41' E 009°40'0 0.0
2018-Feb-19 19:59N 63°41' E 009°40'0 0.0
2018-Feb-19 19:30N 63°41' E 009°40'0 0.0
2018-Feb-19 17:21N 63°41' E 009°40'0 0.0
2018-Feb-19 17:00N 63°41' E 009°40'3 5.8
2018-Feb-19 16:30N 63°38' E 009°41'1 0.3
2018-Feb-19 11:42N 63°40' E 009°42'1 7.2
2018-Feb-19 11:30N 63°38' E 009°41'3 5.8
2018-Feb-19 11:01N 63°41' E 009°40'3 5.7
2018-Feb-19 10:30N 63°38' E 009°41'3 5.8
2018-Feb-19 10:00N 63°41' E 009°40'3 5.8
2018-Feb-19 09:30N 63°38' E 009°41'3 5.6
2018-Feb-19 09:00N 63°41' E 009°40'3 5.8
2018-Feb-19 08:30N 63°38' E 009°41'3 5.8
2018-Feb-19 08:00N 63°41' E 009°40'3 5.8
2018-Feb-19 07:30N 63°38' E 009°41'3 5.8
2018-Feb-19 07:00N 63°41' E 009°40'3 5.6
2018-Feb-19 06:29N 63°38' E 009°41'2 3.7
2018-Feb-19 05:59N 63°40' E 009°41'1 1.4
2018-Feb-19 05:29N 63°40' E 009°41'0 0.8
2018-Feb-19 05:00N 63°40' E 009°41'1 2.6
2018-Feb-19 04:30N 63°41' E 009°40'0 0.0
2018-Feb-19 04:00N 63°41' E 009°40'0 0.0
2018-Feb-19 03:30N 63°41' E 009°40'0 0.0
2018-Feb-19 03:00N 63°41' E 009°40'0 0.0
2018-Feb-19 02:30N 63°41' E 009°40'0 0.0
2018-Feb-19 02:00N 63°41' E 009°40'0 0.0
2018-Feb-19 01:30N 63°41' E 009°40'0 0.0
2018-Feb-19 01:00N 63°41' E 009°40'0 0.0
2018-Feb-19 00:30N 63°41' E 009°40'0 0.0
2018-Feb-19 00:00N 63°41' E 009°40'0 0.0
2018-Feb-18 23:29N 63°41' E 009°40'0 0.0
2018-Feb-18 22:59N 63°41' E 009°40'0 0.0
2018-Feb-18 22:30N 63°41' E 009°40'0 0.0
2018-Feb-18 22:00N 63°41' E 009°40'0 0.0
2018-Feb-18 21:30N 63°41' E 009°40'0 0.0
2018-Feb-18 20:59N 63°41' E 009°40'0 0.0
2018-Feb-18 20:30N 63°41' E 009°40'0 0.0
2018-Feb-18 19:58N 63°41' E 009°40'0 0.0
2018-Feb-18 19:30N 63°41' E 009°40'0 0.0
2018-Feb-18 19:00N 63°41' E 009°40'3 5.9
2018-Feb-18 18:30N 63°38' E 009°41'3 5.6
2018-Feb-18 18:00N 63°41' E 009°40'3 5.8
2018-Feb-18 17:30N 63°38' E 009°41'3 5.6
2018-Feb-18 17:00N 63°41' E 009°40'3 5.8
2018-Feb-18 16:30N 63°38' E 009°41'3 5.6
2018-Feb-18 15:59N 63°41' E 009°40'3 5.9
2018-Feb-18 15:30N 63°38' E 009°41'3 5.7
2018-Feb-18 15:00N 63°41' E 009°40'3 5.9
2018-Feb-18 14:30N 63°38' E 009°41'3 5.4
2018-Feb-18 13:59N 63°41' E 009°40'3 5.8
2018-Feb-18 13:28N 63°38' E 009°41'3 6.1
2018-Feb-18 13:00N 63°41' E 009°40'0 0.1
2018-Feb-18 12:29N 63°41' E 009°40'0 0.0
2018-Feb-18 12:00N 63°41' E 009°40'0 0.0
2018-Feb-18 11:29N 63°41' E 009°40'0 0.0
2018-Feb-18 10:59N 63°41' E 009°40'0 0.0
2018-Feb-18 10:28N 63°41' E 009°40'0 0.0
2018-Feb-18 10:00N 63°41' E 009°40'0 0.0
2018-Feb-18 09:30N 63°41' E 009°40'0 0.0
2018-Feb-18 09:00N 63°41' E 009°40'0 0.0
2018-Feb-18 08:29N 63°41' E 009°40'0 0.0
2018-Feb-18 07:58N 63°41' E 009°40'0 0.0
2018-Feb-18 07:30N 63°41' E 009°40'0 0.0
2018-Feb-18 07:00N 63°41' E 009°40'0 0.0
2018-Feb-18 06:30N 63°41' E 009°40'0 0.0
2018-Feb-18 05:59N 63°41' E 009°40'0 0.0
2018-Feb-18 05:30N 63°41' E 009°40'0 0.0
2018-Feb-18 05:00N 63°41' E 009°40'0 0.0
2018-Feb-18 04:30N 63°41' E 009°40'0 0.0
2018-Feb-18 03:58N 63°41' E 009°40'0 0.0
2018-Feb-18 03:30N 63°41' E 009°40'0 0.0
2018-Feb-18 03:00N 63°41' E 009°40'0 0.0
2018-Feb-18 02:30N 63°41' E 009°40'0 0.0
2018-Feb-18 02:00N 63°41' E 009°40'0 0.0
2018-Feb-18 01:30N 63°41' E 009°40'0 0.0
2018-Feb-18 01:00N 63°41' E 009°40'0 0.0
2018-Feb-18 00:30N 63°41' E 009°40'0 0.0
2018-Feb-18 00:00N 63°41' E 009°40'0 0.0
2018-Feb-17 23:30N 63°41' E 009°40'0 0.0
2018-Feb-17 23:00N 63°41' E 009°40'0 0.0
2018-Feb-17 22:30N 63°41' E 009°40'0 0.0
2018-Feb-17 22:00N 63°41' E 009°40'0 0.0
2018-Feb-17 21:30N 63°41' E 009°40'0 0.0
2018-Feb-17 21:00N 63°41' E 009°40'0 0.0
2018-Feb-17 20:30N 63°41' E 009°40'0 0.0
2018-Feb-17 20:00N 63°41' E 009°40'0 0.0
2018-Feb-17 19:30N 63°41' E 009°40'0 0.0
2018-Feb-17 19:00N 63°41' E 009°40'0 0.0
2018-Feb-17 18:30N 63°41' E 009°40'0 0.0
2018-Feb-17 18:00N 63°41' E 009°40'0 0.0
2018-Feb-17 17:30N 63°41' E 009°40'0 0.0
2018-Feb-17 17:00N 63°41' E 009°40'0 0.0
2018-Feb-17 16:30N 63°41' E 009°40'0 0.0
2018-Feb-17 16:00N 63°41' E 009°40'0 0.0
2018-Feb-17 15:30N 63°41' E 009°40'0 0.0
2018-Feb-17 15:00N 63°41' E 009°40'0 0.0
2018-Feb-17 14:30N 63°41' E 009°40'0 0.0
2018-Feb-17 14:00N 63°41' E 009°40'0 0.0
2018-Feb-17 13:30N 63°41' E 009°40'0 0.0
2018-Feb-17 13:00N 63°41' E 009°40'0 0.0
2018-Feb-17 12:30N 63°41' E 009°40'0 0.0
2018-Feb-17 12:00N 63°41' E 009°40'0 0.0
2018-Feb-17 11:30N 63°41' E 009°40'0 0.0
2018-Feb-17 11:00N 63°41' E 009°40'0 0.0
2018-Feb-17 10:30N 63°41' E 009°40'0 0.0
2018-Feb-17 10:00N 63°41' E 009°40'0 0.0
2018-Feb-17 09:30N 63°41' E 009°40'0 0.0
2018-Feb-17 09:00N 63°41' E 009°40'0 0.0
2018-Feb-17 08:30N 63°41' E 009°40'0 0.0
2018-Feb-17 08:00N 63°41' E 009°40'0 0.0
2018-Feb-17 07:30N 63°41' E 009°40'0 0.0
2018-Feb-17 07:00N 63°41' E 009°40'0 0.0
2018-Feb-17 06:29N 63°41' E 009°40'0 0.0
2018-Feb-17 06:00N 63°41' E 009°40'0 0.0
2018-Feb-17 05:30N 63°41' E 009°40'0 0.0
2018-Feb-17 05:00N 63°41' E 009°40'0 0.0
2018-Feb-17 04:30N 63°41' E 009°40'0 0.0
2018-Feb-17 04:00N 63°41' E 009°40'0 0.0
2018-Feb-17 03:30N 63°41' E 009°40'0 0.0
2018-Feb-17 03:00N 63°41' E 009°40'0 0.0
2018-Feb-17 02:30N 63°41' E 009°40'0 0.0
2018-Feb-17 02:00N 63°41' E 009°40'0 0.0
2018-Feb-17 01:30N 63°41' E 009°40'0 0.0
2018-Feb-17 01:00N 63°41' E 009°40'0 0.0
2018-Feb-17 00:30N 63°41' E 009°40'0 0.0
2018-Feb-17 00:00N 63°41' E 009°40'0 0.0
2018-Feb-16 23:30N 63°41' E 009°40'0 0.0
2018-Feb-16 22:59N 63°41' E 009°40'0 0.0
2018-Feb-16 22:30N 63°41' E 009°40'0 0.0
2018-Feb-16 22:01N 63°41' E 009°40'0 0.0
2018-Feb-16 21:29N 63°41' E 009°40'0 0.0
2018-Feb-16 20:59N 63°41' E 009°40'0 0.0
2018-Feb-16 20:30N 63°41' E 009°40'0 0.0
2018-Feb-16 20:00N 63°41' E 009°40'0 0.0
2018-Feb-16 19:30N 63°41' E 009°40'0 0.0
2018-Feb-16 19:00N 63°41' E 009°40'0 0.0
2018-Feb-16 18:30N 63°41' E 009°40'0 0.0
2018-Feb-16 18:00N 63°41' E 009°40'3 5.6
2018-Feb-16 17:30N 63°38' E 009°41'3 5.9
2018-Feb-16 17:00N 63°41' E 009°40'3 5.7
2018-Feb-16 16:30N 63°38' E 009°41'3 5.6
2018-Feb-16 15:59N 63°41' E 009°40'3 5.8
2018-Feb-16 15:30N 63°38' E 009°41'3 5.8
2018-Feb-16 15:00N 63°41' E 009°40'3 5.7
2018-Feb-16 14:30N 63°38' E 009°41'3 5.7
2018-Feb-16 14:00N 63°41' E 009°40'3 5.8
2018-Feb-16 13:30N 63°38' E 009°41'3 5.7
2018-Feb-16 13:00N 63°41' E 009°40'3 5.7
2018-Feb-16 12:30N 63°38' E 009°41'3 5.7
2018-Feb-16 12:00N 63°41' E 009°40'3 5.8
2018-Feb-16 11:30N 63°38' E 009°41'3 5.7
2018-Feb-16 11:00N 63°41' E 009°40'3 5.8
2018-Feb-16 10:30N 63°38' E 009°41'3 5.8
2018-Feb-16 10:00N 63°41' E 009°40'3 5.7
2018-Feb-16 09:30N 63°38' E 009°41'3 5.7
2018-Feb-16 09:00N 63°41' E 009°40'3 5.9
2018-Feb-16 08:30N 63°38' E 009°41'3 5.5
2018-Feb-16 07:59N 63°41' E 009°40'3 6.1
2018-Feb-16 07:30N 63°38' E 009°41'3 5.6
2018-Feb-16 06:59N 63°41' E 009°40'0 0.1
2018-Feb-16 06:29N 63°41' E 009°40'0 0.0
2018-Feb-16 06:00N 63°41' E 009°40'0 0.0
2018-Feb-16 05:30N 63°41' E 009°40'0 0.0
2018-Feb-16 04:59N 63°41' E 009°40'0 0.0
2018-Feb-16 04:30N 63°41' E 009°40'0 0.0
2018-Feb-16 04:00N 63°41' E 009°40'0 0.0
2018-Feb-16 03:30N 63°41' E 009°40'0 0.0
2018-Feb-16 03:00N 63°41' E 009°40'0 0.0
2018-Feb-16 02:30N 63°41' E 009°40'0 0.0
2018-Feb-16 02:00N 63°41' E 009°40'0 0.0
2018-Feb-16 01:30N 63°41' E 009°40'0 0.0
2018-Feb-16 01:00N 63°41' E 009°40'0 0.0
2018-Feb-16 00:30N 63°41' E 009°40'0 0.0
2018-Feb-16 00:00N 63°41' E 009°40'0 0.0
2018-Feb-15 23:31N 63°41' E 009°40'0 0.0
2018-Feb-15 23:01N 63°41' E 009°40'0 0.0
2018-Feb-15 22:30N 63°41' E 009°40'0 0.0
2018-Feb-15 22:00N 63°41' E 009°40'0 0.0
2018-Feb-15 21:30N 63°41' E 009°40'0 0.0
2018-Feb-15 21:00N 63°41' E 009°40'0 0.0
2018-Feb-15 20:30N 63°41' E 009°40'0 0.0
2018-Feb-15 20:00N 63°41' E 009°40'0 0.0
2018-Feb-15 19:30N 63°41' E 009°40'0 0.0
2018-Feb-15 19:00N 63°41' E 009°40'0 0.0
2018-Feb-15 18:30N 63°41' E 009°40'0 0.0
2018-Feb-15 18:00N 63°41' E 009°40'0 0.0
2018-Feb-15 17:30N 63°41' E 009°40'0 0.0
2018-Feb-15 17:00N 63°41' E 009°40'3 5.9
2018-Feb-15 16:30N 63°38' E 009°41'3 5.6
2018-Feb-15 16:00N 63°41' E 009°40'3 5.8
2018-Feb-15 15:30N 63°38' E 009°41'3 5.8
2018-Feb-15 15:00N 63°41' E 009°40'3 5.8
2018-Feb-15 14:30N 63°38' E 009°41'3 5.7
2018-Feb-15 14:00N 63°41' E 009°40'3 5.8
2018-Feb-15 13:30N 63°38' E 009°41'3 5.7
2018-Feb-15 13:01N 63°41' E 009°40'3 5.7
2018-Feb-15 12:31N 63°38' E 009°41'3 5.6
2018-Feb-15 12:00N 63°41' E 009°40'3 5.7
2018-Feb-15 11:30N 63°38' E 009°41'3 5.7
2018-Feb-15 10:59N 63°41' E 009°40'3 5.9
2018-Feb-15 10:30N 63°38' E 009°41'3 5.8
2018-Feb-15 10:00N 63°41' E 009°40'3 5.9
2018-Feb-15 09:31N 63°38' E 009°41'3 5.6
2018-Feb-15 09:00N 63°41' E 009°40'3 5.8
2018-Feb-15 08:30N 63°38' E 009°41'3 5.7
2018-Feb-15 08:00N 63°41' E 009°40'3 5.9
2018-Feb-15 07:30N 63°38' E 009°41'3 5.6
2018-Feb-15 07:00N 63°41' E 009°40'3 5.8
2018-Feb-15 06:30N 63°38' E 009°41'2 4.4
2018-Feb-15 06:00N 63°41' E 009°41'1 1.5
2018-Feb-15 05:30N 63°41' E 009°40'0 0.0
2018-Feb-15 05:00N 63°41' E 009°40'0 0.0
2018-Feb-15 04:30N 63°41' E 009°40'0 0.0
2018-Feb-15 04:00N 63°41' E 009°40'0 0.0
2018-Feb-15 03:30N 63°41' E 009°40'0 0.0
2018-Feb-15 03:01N 63°41' E 009°40'0 0.0
2018-Feb-15 02:31N 63°41' E 009°40'0 0.0
2018-Feb-15 02:00N 63°41' E 009°40'0 0.0
2018-Feb-15 01:30N 63°41' E 009°40'0 0.0
2018-Feb-15 01:00N 63°41' E 009°40'0 0.0
2018-Feb-15 00:30N 63°41' E 009°40'0 0.0
2018-Feb-15 00:00N 63°41' E 009°40'0 0.0
2018-Feb-14 23:30N 63°41' E 009°40'0 0.0
2018-Feb-14 23:00N 63°41' E 009°40'0 0.0
2018-Feb-14 22:30N 63°41' E 009°40'0 0.0
2018-Feb-14 22:00N 63°41' E 009°40'0 0.0
2018-Feb-14 21:31N 63°41' E 009°40'0 0.0
2018-Feb-14 21:01N 63°41' E 009°40'0 0.0
2018-Feb-14 20:29N 63°41' E 009°40'0 0.0
2018-Feb-14 20:00N 63°41' E 009°40'0 0.0
2018-Feb-14 19:29N 63°41' E 009°40'0 0.0
2018-Feb-14 19:00N 63°41' E 009°40'0 0.2
2018-Feb-14 18:30N 63°41' E 009°40'3 5.8
2018-Feb-14 18:00N 63°38' E 009°41'3 5.7
2018-Feb-14 17:30N 63°41' E 009°40'0 0.0
2018-Feb-14 17:00N 63°41' E 009°40'3 5.9
2018-Feb-14 16:30N 63°38' E 009°41'3 5.7
2018-Feb-14 16:00N 63°41' E 009°40'3 5.6
2018-Feb-14 15:29N 63°38' E 009°41'3 6.0
2018-Feb-14 15:01N 63°41' E 009°40'3 5.6
2018-Feb-14 14:30N 63°38' E 009°41'3 5.9
2018-Feb-14 14:00N 63°41' E 009°40'3 5.8
2018-Feb-14 13:30N 63°38' E 009°41'3 5.7
2018-Feb-14 13:00N 63°41' E 009°40'3 5.8
2018-Feb-14 12:31N 63°38' E 009°41'3 5.6
2018-Feb-14 12:00N 63°41' E 009°40'3 5.7
2018-Feb-14 11:30N 63°38' E 009°41'3 5.9
2018-Feb-14 11:01N 63°41' E 009°40'3 5.7
2018-Feb-14 10:30N 63°38' E 009°41'3 5.8
2018-Feb-14 10:00N 63°41' E 009°40'3 5.7
2018-Feb-14 09:30N 63°38' E 009°41'3 5.8
2018-Feb-14 09:00N 63°41' E 009°40'3 5.7
2018-Feb-14 08:30N 63°38' E 009°41'3 6.0
2018-Feb-14 08:00N 63°41' E 009°40'3 5.7
2018-Feb-14 07:30N 63°38' E 009°41'3 5.7
2018-Feb-14 07:00N 63°41' E 009°40'3 6.0
2018-Feb-14 06:31N 63°38' E 009°41'2 3.7
2018-Feb-14 06:00N 63°40' E 009°41'1 2.1
2018-Feb-14 05:30N 63°41' E 009°40'0 0.0
2018-Feb-14 05:00N 63°41' E 009°40'0 0.0
2018-Feb-14 04:30N 63°41' E 009°40'0 0.0
2018-Feb-14 04:00N 63°41' E 009°40'0 0.0
2018-Feb-14 03:30N 63°41' E 009°40'0 0.0
2018-Feb-14 03:00N 63°41' E 009°40'0 0.0
2018-Feb-14 02:31N 63°41' E 009°40'0 0.0
2018-Feb-14 02:01N 63°41' E 009°40'0 0.0
2018-Feb-14 01:30N 63°41' E 009°40'0 0.0
2018-Feb-14 01:00N 63°41' E 009°40'0 0.0
2018-Feb-14 00:30N 63°41' E 009°40'0 0.0
2018-Feb-14 00:00N 63°41' E 009°40'0 0.0
2018-Feb-13 23:30N 63°41' E 009°40'0 0.0
2018-Feb-13 22:59N 63°41' E 009°40'0 0.0
2018-Feb-13 22:30N 63°41' E 009°40'0 0.0
2018-Feb-13 22:00N 63°41' E 009°40'0 0.0
2018-Feb-13 21:30N 63°41' E 009°40'0 0.0
2018-Feb-13 21:00N 63°41' E 009°40'0 0.0
2018-Feb-13 20:30N 63°41' E 009°40'0 0.0
2018-Feb-13 20:01N 63°41' E 009°40'0 0.0
2018-Feb-13 19:30N 63°41' E 009°40'0 0.0
2018-Feb-13 19:00N 63°41' E 009°40'0 0.0
2018-Feb-13 18:30N 63°41' E 009°40'0 0.0
2018-Feb-13 18:00N 63°41' E 009°40'0 0.0
2018-Feb-13 17:29N 63°41' E 009°40'0 0.0
2018-Feb-13 17:00N 63°41' E 009°40'3 5.7
2018-Feb-13 16:30N 63°38' E 009°41'3 5.9
2018-Feb-13 16:00N 63°41' E 009°40'3 5.7
2018-Feb-13 15:30N 63°38' E 009°41'3 5.9
2018-Feb-13 15:01N 63°41' E 009°40'3 5.7
2018-Feb-13 14:30N 63°38' E 009°41'3 5.8
2018-Feb-13 14:00N 63°41' E 009°40'3 5.7
2018-Feb-13 13:30N 63°38' E 009°41'3 5.7
2018-Feb-13 13:00N 63°41' E 009°40'3 5.8
2018-Feb-13 12:30N 63°38' E 009°41'3 5.9
2018-Feb-13 12:00N 63°41' E 009°40'3 5.7
2018-Feb-13 11:30N 63°38' E 009°41'3 5.6
2018-Feb-13 11:00N 63°41' E 009°40'3 5.8
2018-Feb-13 10:30N 63°38' E 009°41'3 5.8
2018-Feb-13 10:00N 63°41' E 009°40'3 5.6
2018-Feb-13 09:29N 63°38' E 009°41'3 4.2
2018-Feb-13 08:50N 63°41' E 009°41'3 7.7
2018-Feb-13 08:29N 63°38' E 009°41'3 5.9
2018-Feb-13 08:00N 63°41' E 009°40'3 5.8
2018-Feb-13 07:30N 63°38' E 009°41'3 5.8
2018-Feb-13 07:00N 63°41' E 009°40'3 5.7
2018-Feb-13 06:30N 63°38' E 009°41'2 4.0
2018-Feb-13 06:00N 63°40' E 009°41'1 1.9
2018-Feb-13 05:30N 63°41' E 009°40'0 0.0
2018-Feb-13 05:01N 63°41' E 009°40'0 0.0
2018-Feb-13 04:30N 63°41' E 009°40'0 0.0
2018-Feb-13 04:00N 63°41' E 009°40'0 0.0
2018-Feb-13 03:28N 63°41' E 009°40'0 0.0
2018-Feb-13 03:00N 63°41' E 009°40'0 0.0
2018-Feb-13 02:31N 63°41' E 009°40'0 0.0
2018-Feb-13 02:00N 63°41' E 009°40'0 0.0
2018-Feb-13 01:30N 63°41' E 009°40'0 0.0
2018-Feb-13 01:00N 63°41' E 009°40'0 0.0
2018-Feb-13 00:30N 63°41' E 009°40'0 0.0
2018-Feb-13 00:00N 63°41' E 009°40'0 0.0
2018-Feb-12 23:30N 63°41' E 009°40'0 0.0
2018-Feb-12 23:00N 63°41' E 009°40'0 0.0
2018-Feb-12 22:30N 63°41' E 009°40'0 0.0
2018-Feb-12 22:00N 63°41' E 009°40'0 0.0
2018-Feb-12 21:30N 63°41' E 009°40'0 0.0
2018-Feb-12 21:00N 63°41' E 009°40'0 0.0
2018-Feb-12 20:31N 63°41' E 009°40'0 0.0
2018-Feb-12 20:00N 63°41' E 009°40'0 0.0
2018-Feb-12 19:30N 63°41' E 009°40'0 0.0
2018-Feb-12 18:59N 63°41' E 009°40'0 0.0
2018-Feb-12 18:30N 63°41' E 009°40'0 0.0
2018-Feb-12 18:00N 63°41' E 009°40'0 0.0
2018-Feb-12 17:30N 63°41' E 009°40'0 0.0
2018-Feb-12 16:59N 63°41' E 009°40'3 6.0
2018-Feb-12 16:30N 63°38' E 009°41'3 5.6
2018-Feb-12 16:00N 63°41' E 009°40'3 5.9
2018-Feb-12 15:31N 63°38' E 009°41'3 5.6
2018-Feb-12 15:00N 63°41' E 009°40'3 5.8
2018-Feb-12 14:30N 63°38' E 009°41'3 5.7
2018-Feb-12 14:00N 63°41' E 009°40'3 5.9
2018-Feb-12 13:30N 63°38' E 009°41'3 5.7
2018-Feb-12 13:00N 63°41' E 009°40'3 5.8
2018-Feb-12 12:30N 63°38' E 009°41'3 5.6
2018-Feb-12 12:00N 63°41' E 009°40'3 5.9
2018-Feb-12 11:30N 63°38' E 009°41'3 5.9
2018-Feb-12 11:01N 63°41' E 009°40'3 5.7
2018-Feb-12 10:30N 63°38' E 009°41'3 5.7
2018-Feb-12 10:00N 63°41' E 009°40'3 5.9
2018-Feb-12 09:31N 63°38' E 009°41'3 5.7
2018-Feb-12 09:00N 63°41' E 009°40'3 5.8
2018-Feb-12 08:30N 63°38' E 009°41'3 5.6
2018-Feb-12 08:00N 63°41' E 009°40'3 5.7
2018-Feb-12 07:29N 63°38' E 009°41'3 5.6
2018-Feb-12 06:59N 63°41' E 009°40'3 5.9
2018-Feb-12 06:29N 63°38' E 009°41'2 3.8
2018-Feb-12 06:01N 63°40' E 009°41'1 1.1
2018-Feb-12 05:30N 63°40' E 009°41'1 1.5
2018-Feb-12 05:01N 63°39' E 009°41'2 4.5
2018-Feb-12 04:30N 63°41' E 009°40'0 0.0
2018-Feb-12 04:00N 63°41' E 009°40'0 0.0
2018-Feb-12 03:29N 63°41' E 009°40'0 0.0
2018-Feb-12 03:00N 63°41' E 009°40'0 0.0
2018-Feb-12 02:30N 63°41' E 009°40'0 0.0
2018-Feb-12 02:01N 63°41' E 009°40'0 0.0
2018-Feb-12 01:29N 63°41' E 009°40'0 0.0
2018-Feb-12 01:00N 63°41' E 009°40'0 0.0
2018-Feb-12 00:30N 63°41' E 009°40'0 0.0
2018-Feb-11 23:59N 63°41' E 009°40'0 0.0
2018-Feb-11 23:30N 63°41' E 009°40'0 0.0
2018-Feb-11 23:00N 63°41' E 009°40'0 0.0
2018-Feb-11 22:30N 63°41' E 009°40'  

Dump ship's entire track history